| time (UTC) | temp F | wind direction | speed MPH | gust MPH | rain 1hr in | rain 24hr in | rain mn in | humidity % | barometer mb |
| 20260503043045 | 76 | 224 | 0.0 | 6.0 | 0.00 | 0.00 | 0.00 | 85 | 1013.1 |
| 20260503041511 | 77 | 248 | 1.0 | 4.0 | 0.00 | 0.00 | 0.00 | 85 | 1013.1 |
| 20260503040042 | 77 | 207 | 1.0 | 4.0 | 0.00 | 0.00 | 0.00 | 84 | 1013.0 |
| 20260503034515 | 77 | 195 | 1.0 | 4.0 | 0.00 | 0.00 | 0.00 | 84 | 1013.1 |
| 20260503033046 | 77 | 247 | 0.0 | 3.0 | 0.00 | 0.00 | 0.00 | 84 | 1012.9 |
| 20260503031525 | 77 | 209 | 0.0 | 4.0 | 0.00 | 0.00 | 0.00 | 82 | 1012.5 |
| 20260503030100 | 78 | 200 | 1.0 | 4.0 | 0.00 | 0.00 | 0.00 | 81 | 1012.5 |
| 20260503024529 | 78 | 215 | 1.0 | 4.0 | 0.00 | 0.00 | 0.00 | 80 | 1012.5 |
| 20260503023001 | 79 | 202 | 1.0 | 6.0 | 0.00 | 0.00 | 0.00 | 79 | 1012.5 |
| 20260503021537 | 79 | 214 | 1.0 | 6.0 | 0.00 | 0.00 | 0.00 | 78 | 1012.5 |
| 20260503020003 | 79 | 225 | 3.0 | 8.0 | 0.00 | 0.00 | 0.00 | 77 | 1012.3 |
| 20260503014537 | 79 | 209 | 3.0 | 8.0 | 0.00 | 0.00 | 0.00 | 75 | 1012.3 |
| 20260503013001 | 80 | 200 | 2.0 | 7.0 | 0.00 | 0.00 | 0.00 | 74 | 1012.1 |
| 20260503011543 | 80 | 198 | 1.0 | 7.0 | 0.00 | 0.00 | 0.00 | 72 | 1012.0 |
| 20260503010001 | 81 | 212 | 3.0 | 9.0 | 0.00 | 0.00 | 0.00 | 70 | 1011.9 |
| 20260503004535 | 82 | 211 | 3.0 | 7.0 | 0.00 | 0.00 | 0.00 | 68 | 1011.5 |
| 20260503003012 | 82 | 260 | 2.0 | 8.0 | 0.00 | 0.00 | 0.00 | 65 | 1011.4 |
| 20260503001544 | 83 | 228 | 3.0 | 11.0 | 0.00 | 0.00 | 0.00 | 63 | 1011.2 |
| 20260503000031 | 84 | 219 | 3.0 | 8.0 | 0.00 | 0.00 | 0.00 | 61 | 1011.1 |
| 20260502234601 | 85 | 226 | 2.0 | 7.0 | 0.00 | 0.00 | 0.00 | 59 | 1010.8 |
| 20260502233029 | 86 | 236 | 2.0 | 10.0 | 0.00 | 0.00 | 0.00 | 55 | 1010.5 |
| 20260502231502 | 88 | 224 | 3.0 | 8.0 | 0.00 | 0.00 | 0.00 | 52 | 1010.3 |
| 20260502230040 | 88 | 197 | 3.0 | 9.0 | 0.00 | 0.00 | 0.00 | 50 | 1010.1 |
| 20260502224514 | 90 | 325 | 2.0 | 11.0 | 0.00 | 0.00 | 0.00 | 46 | 1009.7 |
| 20260502223048 | 91 | 196 | 3.0 | 11.0 | 0.00 | 0.00 | 0.00 | 45 | 1009.6 |
| 20260502221522 | 92 | 238 | 4.0 | 13.0 | 0.00 | 0.00 | 0.00 | 43 | 1009.5 |
| 20260502220109 | 92 | 274 | 3.0 | 14.0 | 0.00 | 0.00 | 0.00 | 41 | 1009.3 |
| 20260502214535 | 92 | 205 | 4.0 | 14.0 | 0.00 | 0.00 | 0.00 | 42 | 1009.3 |
| 20260502213005 | 92 | 252 | 7.0 | 14.0 | 0.00 | 0.00 | 0.00 | 42 | 1009.2 |
| 20260502211542 | 93 | 226 | 4.0 | 13.0 | 0.00 | 0.00 | 0.00 | 42 | 1009.1 |
| 20260502210013 | 93 | 219 | 6.0 | 12.0 | 0.00 | 0.00 | 0.00 | 40 | 1009.0 |
| 20260502204549 | 92 | 227 | 5.0 | 16.0 | 0.00 | 0.00 | 0.00 | 41 | 1009.0 |
| 20260502203022 | 93 | 172 | 7.0 | 16.0 | 0.00 | 0.00 | 0.00 | 40 | 1009.1 |
| 20260502201557 | 93 | 207 | 4.0 | 16.0 | 0.00 | 0.00 | 0.00 | 43 | 1009.1 |
| 20260502200026 | 93 | 231 | 5.0 | 16.0 | 0.00 | 0.00 | 0.00 | 43 | 1009.3 |
| 20260502194600 | 93 | 231 | 5.0 | 14.0 | 0.00 | 0.00 | 0.00 | 42 | 1009.4 |
| 20260502193026 | 93 | 242 | 6.0 | 14.0 | 0.00 | 0.00 | 0.00 | 45 | 1009.5 |
| 20260502191604 | 93 | 248 | 6.0 | 18.0 | 0.00 | 0.00 | 0.00 | 44 | 1009.7 |
| 20260502190042 | 93 | 248 | 5.0 | 16.0 | 0.00 | 0.00 | 0.00 | 44 | 1009.9 |
| 20260502184503 | 93 | 192 | 4.0 | 15.0 | 0.00 | 0.00 | 0.00 | 47 | 1009.8 |
| 20260502183038 | 93 | 240 | 4.0 | 17.0 | 0.00 | 0.00 | 0.00 | 49 | 1009.9 |
| 20260502181514 | 92 | 201 | 5.0 | 18.0 | 0.00 | 0.00 | 0.00 | 48 | 1010.0 |
| 20260502163056 | 90 | 236 | 2.0 | 10.0 | 0.00 | 0.00 | 0.00 | 60 | 1010.4 |
| 20260502161605 | 90 | 225 | 5.0 | 14.0 | 0.00 | 0.00 | 0.00 | 62 | 1010.6 |
| 20260502151611 | 88 | 108 | 2.0 | 13.0 | 0.00 | 0.00 | 0.00 | 67 | 1011.0 |
| 20260502123006 | 80 | 87 | 1.0 | 11.0 | 0.00 | 0.00 | 0.00 | 87 | 1010.6 |
| 20260502121638 | 79 | 119 | 0.0 | 5.0 | 0.00 | 0.00 | 0.00 | 88 | 1010.9 |
| 20260502114510 | 76 | 118 | 2.0 | 5.0 | 0.00 | 0.00 | 0.00 | 90 | 1010.6 |
| 20260502113047 | 75 | 105 | 1.0 | 2.0 | 0.00 | 0.00 | 0.00 | 91 | 1010.7 |
| 20260502111507 | 74 | 130 | 1.0 | 3.0 | 0.00 | 0.00 | 0.00 | 92 | 1010.7 |
| 20260502110044 | 74 | 113 | 0.0 | 3.0 | 0.00 | 0.00 | 0.00 | 92 | 1010.7 |
| 20260502104514 | 74 | 96 | 0.0 | 2.0 | 0.00 | 0.00 | 0.00 | 92 | 1010.7 |
| 20260502103055 | 74 | 122 | 0.0 | 0.0 | 0.00 | 0.00 | 0.00 | 91 | 1010.7 |
| 20260502101528 | 74 | 122 | 0.0 | 0.0 | 0.00 | 0.00 | 0.00 | 91 | 1010.5 |
| 20260502100106 | 74 | 135 | 0.0 | 1.0 | 0.00 | 0.00 | 0.00 | 91 | 1010.6 |
| 20260502071517 | 71 | 240 | 0.0 | 0.0 | 0.00 | 0.00 | 0.00 | 88 | 1010.6 |
| 20260502070105 | 72 | 240 | 0.0 | 0.0 | 0.00 | 0.00 | 0.00 | 88 | 1010.8 |
| 20260502064520 | 72 | 240 | 0.0 | 0.0 | 0.00 | 0.00 | 0.00 | 87 | 1010.9 |
| 20260502063053 | 72 | 240 | 0.0 | 1.0 | 0.00 | 0.00 | 0.00 | 86 | 1011.0 |
| 20260502061520 | 73 | 240 | 0.0 | 1.0 | 0.00 | 0.00 | 0.00 | 85 | 1010.9 |
| 20260502060052 | 73 | 220 | 0.0 | 1.0 | 0.00 | 0.00 | 0.00 | 84 | 1011.0 |
| 20260502054533 | 74 | 193 | 0.0 | 1.0 | 0.00 | 0.00 | 0.00 | 83 | 1011.0 |
| 20260502053059 | 73 | 207 | 0.0 | 1.0 | 0.00 | 0.00 | 0.00 | 84 | 1011.0 |
| 20260502051533 | 74 | 207 | 0.0 | 1.0 | 0.00 | 0.00 | 0.00 | 84 | 1011.0 |
| 20260502050002 | 74 | 129 | 0.0 | 1.0 | 0.00 | 0.00 | 0.00 | 82 | 1011.2 |
| 20260502044539 | 74 | 129 | 0.0 | 1.0 | 0.00 | 0.00 | 0.00 | 81 | 1011.2 |